James Reserve, California Weather observations

Data are for 10 minute period ending at time listed.
 Day   Time   Solar   Ave.   Ave.  Ave.  Vector  Max.   Baro.   Total    
  of    of     Rad.   Air    Rel.  Wind   Wind   Wind  Press.  Precip.   
Year   Day            Temp.  Hum.  Speed  Dir.   Gust                    
2015   (PST)  Kw/m2    F      %     mph   deg.    mph    mb.     in.     
-------------------------------------------------------------------------
 114    6:10   0.02   40.7    99    0.3   248     0.8   834.0    0.00 
 114    6:20   0.03   40.9    99    0.4   260     0.9   834.0    0.00 
 114    6:30   0.03   40.9    99    0.3   245     0.9   834.0    0.00 
 114    6:40   0.03   41.0    99    0.6   234     1.2   834.0    0.01 
 114    6:50   0.03   41.0    99    0.4   208     1.1   834.0    0.00 
 114    7:00   0.03   41.0    99    0.4   184     0.8   834.0    0.01 
 114    7:10   0.04   41.0    99    0.5   137     1.6   834.0    0.00 
 114    7:20   0.04   41.1    99    0.5   161     1.3   834.0    0.01 
 114    7:30   0.05   40.5    99    0.6    50     1.1   835.0    0.02 
 114    7:40   0.12   40.5    99    0.5   101     1.7   835.0    0.00 
 114    7:50   0.12   40.8    99    0.5    93     1.0   835.0    0.01 
 114    8:00   0.08   40.7    99    0.6   154     1.6   835.0    0.00 
 114    8:10   0.10   40.7    99    0.4   286     1.0   835.0    0.00 
 114    8:20   0.10   40.7    99    0.2   171     0.9   835.0    0.00 
 114    8:30   0.16   41.1    99    0.5   157     1.1   835.0    0.00 
 114    8:40   0.24   41.3    99    0.6   244     1.4   835.0    0.00 
 114    8:50   0.22   42.0    99    0.7   217     1.4   835.0    0.00 
 114    9:00   0.22   41.7    99    0.7   274     2.0   835.0    0.00 
 114    9:10   0.19   42.2    99    0.6   213     1.5   835.0    0.00 
 114    9:20   0.15   41.8    99    0.6   196     1.7   835.0    0.00 
 114    9:30   0.10   42.2    99    0.7   202     2.1   835.0    0.00 
 114    9:40   0.13   41.7    99    0.5   148     1.4   836.0    0.00 
 114    9:50   0.13   41.9    99    0.6   152     1.2   835.0    0.00 
 114   10:00   0.25   41.8    99    0.6   225     1.8   835.0    0.01 
 114   10:10   0.24   41.9    99    0.6    35     1.3   835.0    0.00 
 114   10:20   0.28   42.8    99    0.9   160     2.3   835.0    0.00 
 114   10:30   0.19   43.2    98    0.9   192     2.5   835.0    0.00 
 114   10:40   0.09   42.2    99    0.6   205     1.7   836.0    0.00 
 114   10:50   0.17   41.9    99    0.8   214     1.7   836.0    0.00 
 114   11:00   0.12   42.1    99    0.5   194     1.1   835.0    0.00 
 114   11:10   0.11   41.9    99    0.6   187     1.4   835.0    0.00 
 114   11:20   0.04   42.2    99    1.1   220     2.3   835.0    0.00 
 114   11:30   0.05   41.9    99    0.6   182     1.5   835.0    0.00 
 114   11:40   0.05   41.9    99    0.5   252     1.0   836.0    0.00 
 114   11:50   0.08   42.2    99    0.5   228     1.4   836.0    0.00 
 114   12:00   0.10   42.4    99    0.5   210     1.5   836.0    0.00 
 114   12:10   0.10   42.3    99    0.5   221     1.2   836.0    0.00 
 114   12:20   0.07   42.2    99    0.6   210     1.9   836.0    0.00 
 114   12:30   0.07   42.6    99    0.5   187     1.2   836.0    0.01 
 114   12:40   0.11   42.5    99    0.6   241     1.5   836.0    0.00 
 114   12:50   0.11   42.5    99    0.5   191     1.1   836.0    0.00 
 114   13:00   0.10   42.7    99    0.7   335     1.5   836.0    0.01 
 114   13:10   0.09   42.4    99    0.8   196     1.8   836.0    0.00 
 114   13:20   0.08   42.5    99    0.7   232     1.3   836.0    0.00 
 114   13:30   0.11   43.0    99    0.6    42     1.2   835.0    0.00 
 114   13:40   0.08   42.9    99    0.7   188     1.4   835.0    0.00 
 114   13:50   0.08   42.9    99    0.7   164     1.5   835.0    0.01 
 114   14:00   0.16   43.3    98    0.6    89     1.2   835.0    0.00 
 114   14:10   0.11   43.9    98    0.7   172     1.8   835.0    0.00 
 114   14:20   0.12   43.5    98    0.5    82     1.8   835.0    0.00 
 114   14:30   0.09   43.5    98    0.4   219     1.4   835.0    0.01 
 114   14:40   0.21   43.6    98    0.6    86     1.2   835.0    0.00 
 114   14:50   0.14   43.8    98    0.8    81     2.2   835.0    0.00 
 114   15:00   0.12   43.2    98    0.7   154     1.9   835.0    0.00 
 114   15:10   0.11   43.3    98    0.7    49     1.6   835.0    0.00 
 114   15:20   0.07   43.7    98    0.8   312     2.0   835.0    0.00 
 114   15:30   0.08   43.7    98    1.0   204     1.8   835.0    0.00 
 114   15:40   0.06   43.0    98    0.6    37     1.7   835.0    0.00 
 114   15:50   0.03   43.2    98    0.6   173     1.8   835.0    0.00 
 114   16:00   0.03   42.9    99    0.7   121     1.7   835.0    0.01 
 114   16:10   0.02   42.8    99    0.6    14     1.2   835.0    0.00 
 114   16:20   0.03   42.8    99    0.8   189     2.2   835.0    0.00 
 114   16:30   0.02   42.7    99    0.6    67     1.2   835.0    0.00 
 114   16:40   0.02   42.7    99    0.5   193     1.1   835.0    0.00 
 114   16:50   0.02   42.4    99    0.8   189     1.9   835.0    0.00 
 114   17:00   0.02   42.3    99    0.8   103     2.4   835.0    0.00 
 114   17:10   0.01   42.2    99    0.5   105     1.2   835.0    0.00 
 114   17:20   0.01   42.2    99    0.4    56     1.2   835.0    0.00 
 114   17:30   0.01   42.2    99    0.5   123     0.9   835.0    0.00 
 114   17:40   0.00   42.0    99    0.6   131     1.1   835.0    0.00 
 114   17:50   0.00   42.1    99    0.4    27     1.3   835.0    0.01 
 114   18:00   0.00   42.2    99    0.4    57     1.2   835.0    0.02 
 114   18:10   0.00   42.2    99    0.4   298     1.1   835.0    0.01 
 114   18:20   0.00   42.0    99    0.5    70     1.1   835.0    0.00 
 114   18:30   0.00   41.8    99    0.5    34     1.0   835.0    0.00 
 114   18:40   0.00   41.7    99    0.8    84     1.9   835.0    0.01 
 114   18:50   0.00   41.8    99    0.4   198     1.3   835.0    0.01 
 114   19:00   0.00   41.8    99    0.7    34     1.4   835.0    0.00 
 114   19:10   0.00   41.6    99    0.4   187     0.9   835.0    0.00 
 114   19:20   0.00   41.6    99    0.6   174     1.2   835.0    0.00 
 114   19:30   0.00   41.6    99    0.7    81     1.3   835.0    0.01 
 114   19:40   0.00   41.6    99    0.5   176     1.4   835.0    0.00 
 114   19:50   0.00   41.6    99    0.4    71     1.1   835.0    0.00 
 114   20:00   0.00   41.6    99    0.5   230     1.1   835.0    0.00 
 114   20:10   0.00   41.4    99    0.5   184     1.1   835.0    0.00 
 114   20:20   0.00   41.3    99    0.5   180     1.4   835.0    0.00 
 114   20:30   0.00   41.3    99    0.5   197     1.1   835.0    0.00 
 114   20:40   0.00   41.5    99    0.7   179     1.9   835.0    0.00 
 114   20:50   0.00   41.3    99    0.4   201     1.2   835.0    0.00 
 114   21:00   0.00   41.1    99    0.4   145     0.7   835.0    0.01 
 114   21:10   0.00   40.9    99    0.4    94     0.8   835.0    0.00 
 114   21:20   0.00   40.7    99    0.5   134     1.0   835.0    0.00 
 114   21:30   0.00   40.5    99    0.4    51     0.9   835.0    0.00 
 114   21:40   0.00   40.3    99    0.4    13     0.9   835.0    0.00 
 114   21:50   0.00   40.4    99    0.6   103     1.2   835.0    0.00 
 114   22:00   0.00   40.3    99    0.5   175     1.3   835.0    0.00 
 114   22:10   0.00   40.1    99    0.5   201     1.2   835.0    0.00 
 114   22:20   0.00   40.1    99    0.4   192     0.7   835.0    0.00 
 114   22:30   0.00   39.9    99    0.5   227     1.5   835.0    0.00 
 114   22:40   0.00   40.3    99    0.5    38     1.8   835.0    0.00 
 114   22:50   0.00   40.2    99    0.4   157     1.0   835.0    0.00 
 114   23:00   0.00   40.2    99    0.4   137     1.1   835.0    0.00 
 114   23:10   0.00   40.2    99    0.4   225     0.8   835.0    0.00 
 114   23:20   0.00   40.2    99    0.3    10     1.0   835.0    0.00 
 114   23:30   0.00   39.9    99    0.4    80     1.0   835.0    0.00 
 114   23:40   0.00   39.9    99    0.7    70     1.6   835.0    0.00 
 114   23:50   0.00   39.9    99    0.5    57     1.1   835.0    0.00 
 115    0:00   0.00   39.9    99    0.4    66     1.1   835.0    0.00 
 115    0:10   0.00   39.9    99    0.4    68     0.9   835.0    0.00 
 115    0:20   0.00   39.8    99    0.6    45     1.2   835.0    0.00 
 115    0:30   0.00   40.0    99    0.3     8     0.8   835.0    0.00 
 115    0:40   0.00   39.9    99    0.3    14     0.9   835.0    0.00 
 115    0:50   0.00   39.8    99    0.5    47     1.1   835.0    0.00 
 115    1:00   0.00   39.8    99    0.7    29     1.4   835.0    0.00 
 115    1:10   0.00   39.7    99    0.7    35     2.0   835.0    0.00 
 115    1:20   0.00   39.6    99    0.7    69     1.4   835.0    0.00 
 115    1:30   0.00   39.6    99    0.7    62     1.3   834.0    0.00 
 115    1:40   0.00   39.5    99    0.4   204     0.8   834.0    0.00 
 115    1:50   0.00   39.5    99    0.7    49     2.4   834.0    0.00 
 115    2:00   0.00   39.5    99    0.5   174     1.1   834.0    0.00 
 115    2:10   0.00   39.6    99    0.5    79     1.1   834.0    0.00 
 115    2:20   0.00   39.6    99    0.5    53     1.0   834.0    0.00 
 115    2:30   0.00   39.6    99    0.4   209     0.8   834.0    0.00 
 115    2:40   0.00   39.7    99    0.3    14     0.8   834.0    0.00 
 115    2:50   0.00   39.6    99    0.4   267     1.0   834.0    0.00 
 115    3:00   0.00   39.4    99    0.5    59     1.0   834.0    0.00 
 115    3:10   0.00   39.4    99    0.3    73     0.7   834.0    0.00 
 115    3:20   0.00   39.3    99    0.3    80     0.6   834.0    0.00 
 115    3:30   0.00   39.2    99    0.5   179     1.0   834.0    0.00 
 115    3:40   0.00   39.3    99    0.3   140     0.5   834.0    0.00 
 115    3:50   0.00   39.2    99    0.5   167     1.2   834.0    0.00 
 115    4:00   0.00   39.2    99    0.6    43     1.6   834.0    0.01 
 115    4:10   0.00   39.3    99    0.8    63     1.5   834.0    0.00 
 115    4:20   0.00   39.3    99    0.5   227     1.3   834.0    0.00 
 115    4:30   0.00   39.3    99    0.4    56     0.8   834.0    0.00 
 115    4:40   0.00   39.3    99    0.5    11     1.2   834.0    0.00 
 115    4:50   0.00   39.1    99    0.5   104     1.6   834.0    0.00 
 115    5:00   0.00   39.1    99    0.5    67     1.2   834.0    0.00 
 115    5:10   0.00   39.3    99    0.5    59     1.2   834.0    0.00 
 115    5:20   0.00   39.3    99    0.4    61     1.0   834.0    0.00 
 115    5:30   0.01   39.3    99    0.5   169     1.0   834.0    0.00 
 115    5:40   0.01   39.3    99    0.6   149     1.4   834.0    0.00 
 115    5:50   0.01   39.3    99    0.5    68     1.4   834.0    0.00 
 115    6:00   0.01   39.4    99    0.7    67     1.6   834.0    0.00 

Return to James Reserve graphs page.


Western Regional Climate Center,wrcc@dri.edu